Time;durP1;ratioP1;P1;durP2;ratioP2;P2;SDS_P1;SDS_P2;PMS_P1;PMS_P2;Temp;Humidity;BMP_temperature;BMP_pressure;BME280_temperature;BME280_humidity;BME280_pressure;Samples;Min_cycle;Max_cycle;Signal;HPM_P1;HPM_P2
2022/03/01 00:01:59;;;;;;;14.85;9.00;;;9.20;54.20;;;;;;5014892;28;20519;-75
2022/03/01 00:04:25;;;;;;;15.57;9.75;;;9.20;54.10;;;;;;5014817;28;20025;-75
2022/03/01 00:06:51;;;;;;;14.27;9.13;;;9.10;54.10;;;;;;5014104;28;20393;-75
2022/03/01 00:09:17;;;;;;;16.13;9.43;;;9.10;54.20;;;;;;5014482;28;20029;-77
2022/03/01 00:11:42;;;;;;;13.57;9.10;;;9.00;54.20;;;;;;5014939;28;20079;-75
2022/03/01 00:14:08;;;;;;;13.75;8.27;;;9.00;54.30;;;;;;5014512;28;20033;-76
2022/03/01 00:16:35;;;;;;;17.00;9.57;;;9.00;54.30;;;;;;5014482;28;20462;-76
2022/03/01 00:19:01;;;;;;;14.38;8.77;;;9.00;55.40;;;;;;5015152;28;20041;-78
2022/03/01 00:21:30;;;;;;;12.50;8.38;;;9.00;56.00;;;;;;5015641;28;20022;-76
2022/03/01 00:23:57;;;;;;;15.45;8.60;;;9.00;56.20;;;;;;5015476;28;20486;-73
2022/03/01 00:26:23;;;;;;;14.82;8.80;;;9.00;56.30;;;;;;5015311;28;20087;-74
2022/03/01 00:28:49;;;;;;;13.38;9.07;;;9.00;56.70;;;;;;5015173;28;20037;-74
2022/03/01 00:31:15;;;;;;;14.73;9.77;;;9.10;55.40;;;;;;5015336;28;20420;-74
2022/03/01 00:33:41;;;;;;;18.80;9.65;;;9.10;55.20;;;;;;5014377;28;20105;-75
2022/03/01 00:36:06;;;;;;;16.90;9.23;;;9.10;54.90;;;;;;5013726;28;20484;-73
2022/03/01 00:38:32;;;;;;;15.88;9.00;;;9.20;55.00;;;;;;5015057;28;20169;-73
2022/03/01 00:40:58;;;;;;;17.40;9.07;;;9.20;54.90;;;;;;5015210;28;20026;-74
2022/03/01 00:43:24;;;;;;;18.50;8.98;;;9.20;54.70;;;;;;5014594;28;20131;-73
2022/03/01 00:45:51;;;;;;;16.58;9.15;;;9.30;54.60;;;;;;5014673;28;20466;-74
2022/03/01 00:48:16;;;;;;;13.77;8.95;;;9.20;54.30;;;;;;5015096;28;20101;-73
2022/03/01 00:50:42;;;;;;;12.60;9.10;;;9.30;54.40;;;;;;5014086;28;20468;-76
2022/03/01 00:53:08;;;;;;;15.13;9.18;;;9.30;54.40;;;;;;5013794;28;20026;-73
2022/03/01 00:55:34;;;;;;;19.23;9.07;;;9.30;54.20;;;;;;5014185;28;20105;-73
2022/03/01 00:58:00;;;;;;;13.40;8.77;;;9.20;54.20;;;;;;5014229;28;20030;-73
2022/03/01 01:00:27;;;;;;;15.55;9.32;;;9.30;54.90;;;;;;5013923;28;20037;-73
2022/03/01 01:02:52;;;;;;;14.60;9.40;;;9.30;54.20;;;;;;5014459;28;20474;-75
2022/03/01 01:05:18;;;;;;;24.02;10.30;;;9.20;54.20;;;;;;5014841;28;20034;-75
2022/03/01 01:07:44;;;;;;;15.38;9.35;;;9.20;54.30;;;;;;5014726;28;20101;-75
2022/03/01 01:10:11;;;;;;;15.75;10.00;;;9.00;54.40;;;;;;5014321;28;20445;-75
2022/03/01 01:12:37;;;;;;;15.77;10.15;;;8.90;54.60;;;;;;5014680;28;20032;-76
2022/03/01 01:15:05;;;;;;;17.05;9.95;;;8.70;54.90;;;;;;5014769;28;20087;-76
2022/03/01 01:17:30;;;;;;;17.70;9.82;;;8.60;55.10;;;;;;5014133;28;20022;-75
2022/03/01 01:19:56;;;;;;;16.20;10.15;;;8.70;55.30;;;;;;5014224;28;20038;-75
2022/03/01 01:22:40;;;;;;;14.43;9.40;;;8.70;55.30;;;;;;5014324;28;20018;-75
2022/03/01 01:25:10;;;;;;;17.13;10.35;;;8.70;55.30;;;;;;5014244;28;20040;-75
2022/03/01 01:27:37;;;;;;;14.55;9.27;;;8.70;55.40;;;;;;5014474;28;20073;-75
2022/03/01 01:30:04;;;;;;;13.82;9.05;;;8.60;55.30;;;;;;5014497;28;20034;-75
2022/03/01 01:32:30;;;;;;;15.73;9.27;;;8.70;55.20;;;;;;5014165;28;20061;-74
2022/03/01 01:34:55;;;;;;;14.27;9.50;;;8.70;55.10;;;;;;5014413;28;20041;-76
2022/03/01 01:37:21;;;;;;;14.85;9.23;;;8.70;55.10;;;;;;5014087;28;20427;-75
2022/03/01 01:39:47;;;;;;;15.82;9.30;;;8.80;55.10;;;;;;5014043;28;20116;-75
2022/03/01 01:42:13;;;;;;;15.63;9.85;;;8.90;55.00;;;;;;5014256;28;20025;-75
2022/03/01 01:44:39;;;;;;;15.07;9.50;;;8.90;54.90;;;;;;5013690;28;20484;-76
2022/03/01 01:47:07;;;;;;;16.85;9.80;;;8.90;54.70;;;;;;5013896;28;20030;-75
2022/03/01 01:49:33;;;;;;;14.15;9.15;;;8.90;54.70;;;;;;5013861;28;20052;-76
2022/03/01 01:51:59;;;;;;;14.32;8.75;;;8.90;54.80;;;;;;5013778;28;20040;-76
2022/03/01 01:54:24;;;;;;;13.25;9.02;;;8.90;54.90;;;;;;5013915;28;20022;-76
2022/03/01 01:56:50;;;;;;;15.48;9.85;;;9.00;54.70;;;;;;5013279;28;20022;-76
2022/03/01 01:59:16;;;;;;;16.17;10.02;;;8.90;54.70;;;;;;5013624;28;20038;-78
2022/03/01 02:01:41;;;;;;;13.82;9.07;;;9.00;54.90;;;;;;5013686;28;20076;-78
2022/03/01 02:04:07;;;;;;;15.10;9.43;;;8.90;54.80;;;;;;5013763;28;20029;-78
2022/03/01 02:06:52;;;;;;;17.00;9.85;;;8.90;54.70;;;;;;5013514;28;20034;-77
2022/03/01 02:09:18;;;;;;;15.20;9.48;;;8.90;54.80;;;;;;5013628;28;20493;-77
2022/03/01 02:11:43;;;;;;;13.48;9.00;;;8.90;54.70;;;;;;5013850;28;20026;-77
2022/03/01 02:14:09;;;;;;;17.50;9.88;;;8.90;54.70;;;;;;5013628;28;20025;-77
2022/03/01 02:16:36;;;;;;;13.70;8.68;;;9.00;54.90;;;;;;5013568;28;20022;-76
2022/03/01 02:19:03;;;;;;;13.85;9.00;;;9.00;54.80;;;;;;5013265;28;20038;-77
2022/03/01 02:21:29;;;;;;;15.98;9.73;;;9.00;54.70;;;;;;5013398;28;20026;-77
2022/03/01 02:23:55;;;;;;;13.43;8.82;;;9.10;54.70;;;;;;5013524;28;20535;-77
2022/03/01 02:26:20;;;;;;;14.95;9.07;;;9.10;54.80;;;;;;5013693;28;20033;-76
2022/03/01 02:28:46;;;;;;;15.02;10.02;;;9.10;54.60;;;;;;5013533;28;20022;-77
2022/03/01 02:31:11;;;;;;;16.88;10.82;;;9.10;54.90;;;;;;5013309;28;20413;-77
2022/03/01 02:33:37;;;;;;;14.60;8.93;;;9.10;55.00;;;;;;5013344;28;20113;-76
2022/03/01 02:36:03;;;;;;;12.73;9.25;;;9.10;54.90;;;;;;5013422;28;20030;-76
2022/03/01 02:38:28;;;;;;;14.98;8.93;;;9.10;55.00;;;;;;5013462;28;20084;-76
2022/03/01 02:40:54;;;;;;;13.77;8.65;;;9.20;55.00;;;;;;5013473;28;20441;-76
2022/03/01 02:43:19;;;;;;;15.88;9.32;;;9.20;55.00;;;;;;5013323;28;20466;-77
2022/03/01 02:45:45;;;;;;;16.65;8.85;;;9.20;54.90;;;;;;5013462;28;20350;-77
2022/03/01 02:48:11;;;;;;;14.40;9.80;;;9.20;54.90;;;;;;5013416;28;20026;-77
2022/03/01 02:50:36;;;;;;;17.58;9.70;;;9.20;54.90;;;;;;5012836;28;20461;-77
2022/03/01 02:53:02;;;;;;;16.55;9.52;;;9.20;54.70;;;;;;5013504;28;20033;-77
2022/03/01 02:55:28;;;;;;;16.00;9.02;;;9.20;55.40;;;;;;5013141;28;20454;-76
2022/03/01 02:57:53;;;;;;;14.25;8.75;;;9.30;55.00;;;;;;5013268;28;20035;-76
2022/03/01 03:00:19;;;;;;;14.18;9.13;;;9.30;55.50;;;;;;5013030;28;20483;-77
2022/03/01 03:02:44;;;;;;;13.13;9.02;;;9.30;55.10;;;;;;5013256;28;20025;-76
2022/03/01 03:05:10;;;;;;;13.88;9.48;;;9.30;55.10;;;;;;5012886;28;20025;-76
2022/03/01 03:07:36;;;;;;;15.43;8.90;;;9.30;54.90;;;;;;5013395;28;20022;-75
2022/03/01 03:10:03;;;;;;;13.00;8.60;;;9.30;54.80;;;;;;5014945;28;20484;-76
2022/03/01 03:12:29;;;;;;;14.07;8.88;;;9.30;54.80;;;;;;5016710;28;20127;-75
2022/03/01 03:14:54;;;;;;;14.45;10.13;;;9.20;55.00;;;;;;5016941;28;20050;-75
2022/03/01 03:17:20;;;;;;;15.88;9.40;;;9.20;55.00;;;;;;5016425;28;20108;-75
2022/03/01 03:19:45;;;;;;;15.13;9.80;;;9.10;55.10;;;;;;5016723;28;20053;-76
2022/03/01 03:22:11;;;;;;;13.93;9.40;;;9.10;55.10;;;;;;5016857;28;20548;-76
2022/03/01 03:24:37;;;;;;;15.68;9.93;;;9.10;55.20;;;;;;5016383;28;20038;-77
2022/03/01 03:27:02;;;;;;;16.60;9.10;;;9.10;55.20;;;;;;5016693;28;20105;-76
2022/03/01 03:29:28;;;;;;;15.57;9.32;;;9.10;55.20;;;;;;5016381;28;20022;-76
2022/03/01 03:31:57;;;;;;;15.82;9.63;;;9.10;55.20;;;;;;5016097;28;20034;-76
2022/03/01 03:34:23;;;;;;;15.07;9.68;;;9.00;55.00;;;;;;5016155;28;20029;-76
2022/03/01 03:36:49;;;;;;;17.77;10.10;;;9.00;55.20;;;;;;5016032;28;20026;-76
2022/03/01 03:39:18;;;;;;;15.48;10.20;;;8.90;55.40;;;;;;5016183;28;20109;-76
2022/03/01 03:41:44;;;;;;;15.65;9.23;;;8.80;55.70;;;;;;5015835;28;20117;-76
2022/03/01 03:44:09;;;;;;;17.05;10.10;;;8.80;56.40;;;;;;5016102;28;20060;-76
2022/03/01 03:46:35;;;;;;;15.27;10.10;;;8.80;56.60;;;;;;5016168;28;20438;-75
2022/03/01 03:49:02;;;;;;;15.18;9.95;;;8.70;56.40;;;;;;5015989;28;20030;-76
2022/03/01 03:51:28;;;;;;;14.70;9.38;;;8.70;56.70;;;;;;5016265;28;20080;-76
2022/03/01 03:53:54;;;;;;;17.27;10.18;;;8.70;56.90;;;;;;5016245;28;20112;-76
2022/03/01 03:56:19;;;;;;;15.00;9.75;;;8.60;56.80;;;;;;5015686;28;20428;-76
2022/03/01 03:58:45;;;;;;;14.63;9.80;;;8.60;56.90;;;;;;5016092;28;20508;-76
2022/03/01 04:01:11;;;;;;;17.25;10.60;;;8.60;56.90;;;;;;5015578;28;20018;-76
2022/03/01 04:03:37;;;;;;;17.92;11.48;;;8.50;57.40;;;;;;5015571;28;20124;-76
2022/03/01 04:06:03;;;;;;;16.80;10.15;;;8.50;57.10;;;;;;5015537;28;20061;-76
2022/03/01 04:08:28;;;;;;;14.85;9.65;;;8.50;57.40;;;;;;5015813;28;20350;-77
2022/03/01 04:10:56;;;;;;;14.75;10.13;;;8.50;57.80;;;;;;5015902;28;20137;-77
2022/03/01 04:13:23;;;;;;;16.80;10.55;;;8.50;58.10;;;;;;5015669;28;20052;-77
2022/03/01 04:15:48;;;;;;;17.20;10.55;;;8.50;58.30;;;;;;5015461;28;20037;-77
2022/03/01 04:18:14;;;;;;;16.85;10.70;;;8.50;58.10;;;;;;5015108;28;20026;-77
2022/03/01 04:20:40;;;;;;;15.20;10.20;;;8.40;58.10;;;;;;5015183;28;20045;-77
2022/03/01 04:23:05;;;;;;;17.52;10.80;;;8.40;58.10;;;;;;5015449;28;20032;-78
2022/03/01 04:25:31;;;;;;;14.73;10.57;;;8.30;57.90;;;;;;5015656;28;20045;-76
2022/03/01 04:27:56;;;;;;;16.17;10.10;;;8.30;58.30;;;;;;5015413;28;20473;-77
2022/03/01 04:30:22;;;;;;;15.57;9.77;;;8.30;58.70;;;;;;5015589;28;20370;-76
2022/03/01 04:32:48;;;;;;;16.02;9.98;;;8.30;58.60;;;;;;5014824;28;20022;-76
2022/03/01 04:35:14;;;;;;;15.63;9.82;;;8.30;59.10;;;;;;5015365;28;20036;-76
2022/03/01 04:37:42;;;;;;;15.98;9.77;;;8.30;58.90;;;;;;5015446;28;20385;-76
2022/03/01 04:40:10;;;;;;;17.25;11.15;;;8.30;59.10;;;;;;5015026;28;20058;-75
2022/03/01 04:42:36;;;;;;;18.58;11.23;;;8.30;58.60;;;;;;5015054;28;20033;-75
2022/03/01 04:45:05;;;;;;;16.15;10.10;;;8.20;58.70;;;;;;5015078;28;20022;-75
2022/03/01 04:47:31;;;;;;;15.60;9.80;;;8.10;58.90;;;;;;5014861;28;20544;-75
2022/03/01 04:49:58;;;;;;;17.20;10.68;;;8.10;59.10;;;;;;5014807;28;20042;-74
2022/03/01 04:52:24;;;;;;;17.08;10.10;;;8.10;59.20;;;;;;5014770;28;20026;-74
2022/03/01 04:54:50;;;;;;;21.88;9.98;;;8.10;59.20;;;;;;5014879;28;20032;-75
2022/03/01 04:57:15;;;;;;;16.90;10.10;;;8.10;59.20;;;;;;5014682;28;20033;-75
2022/03/01 04:59:41;;;;;;;16.23;9.50;;;8.20;59.10;;;;;;5014506;28;20120;-75
2022/03/01 05:02:07;;;;;;;17.23;10.70;;;8.20;59.00;;;;;;5014670;28;20028;-74
2022/03/01 05:04:33;;;;;;;17.27;10.02;;;8.20;58.70;;;;;;5014827;28;20026;-74
2022/03/01 05:06:58;;;;;;;18.02;10.38;;;8.20;58.70;;;;;;5014812;28;20057;-75
2022/03/01 05:09:24;;;;;;;15.77;10.52;;;8.20;58.80;;;;;;5014464;28;20022;-74
2022/03/01 05:11:51;;;;;;;14.48;9.48;;;8.20;58.70;;;;;;5014478;28;20017;-75
2022/03/01 05:14:18;;;;;;;20.50;11.07;;;8.20;58.80;;;;;;5014424;28;20428;-74
2022/03/01 05:16:45;;;;;;;17.10;10.20;;;8.20;58.60;;;;;;5014489;28;20108;-75
2022/03/01 05:19:12;;;;;;;17.63;10.20;;;8.20;58.60;;;;;;5014228;28;20041;-75
2022/03/01 05:21:37;;;;;;;21.25;10.18;;;8.20;58.70;;;;;;5014420;28;20491;-75
2022/03/01 05:24:04;;;;;;;19.52;10.65;;;8.10;58.70;;;;;;5014341;28;20030;-75
2022/03/01 05:26:30;;;;;;;17.67;10.15;;;8.10;59.10;;;;;;5014561;28;20026;-75
2022/03/01 05:28:56;;;;;;;22.90;10.52;;;8.10;59.20;;;;;;5014297;28;20049;-75
2022/03/01 05:31:21;;;;;;;59.17;12.57;;;8.10;59.00;;;;;;5013785;28;20026;-75
2022/03/01 05:33:47;;;;;;;19.10;9.95;;;8.10;58.70;;;;;;5014088;28;20033;-74
2022/03/01 05:36:14;;;;;;;21.80;10.35;;;8.20;59.00;;;;;;5014073;28;20027;-74
2022/03/01 05:38:41;;;;;;;17.42;10.80;;;8.20;58.80;;;;;;5014315;28;20117;-75
2022/03/01 05:41:08;;;;;;;19.55;10.52;;;8.20;58.80;;;;;;5013705;28;20029;-75
2022/03/01 05:43:34;;;;;;;18.42;10.45;;;8.10;59.00;;;;;;5014093;28;20030;-76
2022/03/01 05:45:59;;;;;;;15.15;9.65;;;8.10;58.90;;;;;;5014031;28;20096;-76
2022/03/01 05:48:26;;;;;;;18.40;11.48;;;8.00;59.40;;;;;;5014029;28;20465;-75
2022/03/01 05:50:52;;;;;;;19.70;10.85;;;8.00;59.40;;;;;;5013628;28;20056;-75
2022/03/01 05:53:18;;;;;;;18.70;10.85;;;7.90;59.20;;;;;;5013987;28;20057;-76
2022/03/01 05:55:44;;;;;;;18.73;10.52;;;7.90;59.10;;;;;;5013706;28;20053;-76
2022/03/01 05:58:10;;;;;;;34.13;11.68;;;7.80;58.90;;;;;;5013561;28;20117;-75
2022/03/01 06:00:35;;;;;;;23.27;10.98;;;7.70;58.90;;;;;;5013658;28;20116;-75
2022/03/01 06:03:01;;;;;;;19.52;11.02;;;7.70;58.90;;;;;;5013947;28;20061;-75
2022/03/01 06:05:28;;;;;;;17.92;10.98;;;7.70;59.00;;;;;;5013914;28;20073;-76
2022/03/01 06:07:55;;;;;;;15.40;9.68;;;7.60;59.00;;;;;;5013785;28;20030;-78
2022/03/01 06:10:22;;;;;;;21.60;9.75;;;7.60;59.70;;;;;;5013812;28;20034;-79
2022/03/01 06:12:47;;;;;;;15.48;9.27;;;7.70;61.10;;;;;;5008686;28;20025;-80
2022/03/01 06:15:14;;;;;;;15.10;9.32;;;7.80;61.50;;;;;;4993693;28;20370;-78
2022/03/01 06:17:39;;;;;;;17.83;10.30;;;7.80;61.40;;;;;;4993938;28;20029;-78
2022/03/01 06:20:07;;;;;;;16.60;10.65;;;7.90;61.50;;;;;;4993941;28;20034;-79
2022/03/01 06:22:32;;;;;;;16.40;8.85;;;7.90;60.60;;;;;;4993771;28;20030;-78
2022/03/01 06:24:58;;;;;;;18.92;10.57;;;7.90;61.40;;;;;;4993909;28;20529;-81
2022/03/01 06:27:24;;;;;;;21.05;11.20;;;8.00;61.60;;;;;;4993675;28;20029;-80
2022/03/01 06:29:50;;;;;;;19.08;11.73;;;8.10;61.50;;;;;;4993795;28;20018;-81
2022/03/01 06:32:15;;;;;;;18.55;11.32;;;8.10;60.50;;;;;;4993945;28;20041;-81
2022/03/01 06:34:41;;;;;;;15.02;10.10;;;8.10;60.40;;;;;;4993855;28;20470;-81
2022/03/01 06:37:12;;;;;;;16.70;10.90;;;8.10;60.40;;;;;;4993589;28;20026;-82
2022/03/01 06:39:42;;;;;;;18.42;11.30;;;8.10;60.10;;;;;;4993553;28;20097;-82
2022/03/01 06:42:08;;;;;;;19.38;10.88;;;8.10;59.90;;;;;;4993675;28;20058;-81
2022/03/01 06:44:33;;;;;;;16.65;10.85;;;8.00;60.10;;;;;;4996943;28;20042;-81
2022/03/01 06:46:59;;;;;;;15.25;10.10;;;8.00;60.20;;;;;;4997749;28;20430;-82
2022/03/01 06:49:24;;;;;;;20.25;11.85;;;8.00;60.60;;;;;;5002561;28;20378;-80
2022/03/01 06:51:50;;;;;;;16.75;11.80;;;8.10;60.70;;;;;;5016795;28;20018;-81
2022/03/01 06:54:16;;;;;;;19.02;10.98;;;8.00;60.30;;;;;;5017134;28;20026;-81
2022/03/01 06:56:41;;;;;;;20.05;10.88;;;8.00;61.20;;;;;;5017125;28;20018;-81
2022/03/01 06:59:07;;;;;;;21.30;11.80;;;8.10;60.70;;;;;;5016509;28;20030;-80
2022/03/01 07:01:32;;;;;;;18.48;11.20;;;8.10;60.50;;;;;;5017096;28;20109;-81
2022/03/01 07:03:58;;;;;;;46.05;13.57;;;8.00;60.40;;;;;;5017122;28;20026;-81
2022/03/01 07:06:23;;;;;;;39.03;13.23;;;8.10;60.40;;;;;;5016577;28;20022;-80
2022/03/01 07:08:49;;;;;;;25.10;11.60;;;8.00;60.20;;;;;;5016776;28;20057;-86
2022/03/01 07:11:15;;;;;;;18.63;11.02;;;8.00;60.70;;;;;;5016920;28;20046;-79
2022/03/01 07:13:41;;;;;;;19.67;11.35;;;8.10;60.80;;;;;;5016639;28;20120;-81
2022/03/01 07:16:07;;;;;;;17.63;11.60;;;8.10;60.10;;;;;;5016786;28;20022;-80
2022/03/01 07:18:33;;;;;;;15.38;9.98;;;8.10;60.80;;;;;;5023090;28;20377;-82
2022/03/01 07:20:59;;;;;;;18.45;11.70;;;8.20;60.30;;;;;;5025506;28;20032;-82
2022/03/01 07:23:24;;;;;;;19.33;11.98;;;8.20;60.40;;;;;;5027593;28;20060;-82
2022/03/01 07:25:50;;;;;;;16.92;11.45;;;8.20;60.10;;;;;;5028724;28;20036;-83
2022/03/01 07:28:15;;;;;;;23.38;11.93;;;8.10;59.90;;;;;;5024553;28;20101;-82
2022/03/01 07:30:41;;;;;;;15.63;10.85;;;8.10;60.50;;;;;;5018229;28;20025;-85
2022/03/01 07:33:07;;;;;;;18.63;10.88;;;8.10;59.90;;;;;;5014795;28;20030;-85
2022/03/01 07:35:32;;;;;;;16.83;10.70;;;8.10;60.10;;;;;;5016342;28;20046;-84
2022/03/01 07:37:58;;;;;;;20.67;11.27;;;8.20;60.40;;;;;;5016245;28;20454;-78
2022/03/01 07:40:25;;;;;;;17.58;11.43;;;8.30;60.70;;;;;;5018219;28;20057;-81
2022/03/01 07:42:51;;;;;;;19.45;12.27;;;8.30;60.50;;;;;;5018456;28;20032;-83
2022/03/01 07:45:17;;;;;;;17.83;11.27;;;8.30;59.90;;;;;;5026592;28;20029;-83
2022/03/01 07:47:43;;;;;;;21.65;11.77;;;8.30;60.00;;;;;;5033866;28;20135;-83
2022/03/01 07:50:09;;;;;;;16.77;11.50;;;8.30;60.20;;;;;;5019191;28;20050;-80
2022/03/01 07:52:35;;;;;;;18.92;11.23;;;8.40;59.90;;;;;;5011140;28;20026;-80
2022/03/01 07:55:01;;;;;;;24.08;12.55;;;8.40;59.70;;;;;;5009054;28;20509;-80
2022/03/01 07:57:27;;;;;;;19.08;11.82;;;8.40;59.40;;;;;;5011602;28;20034;-79
2022/03/01 07:59:52;;;;;;;21.35;12.20;;;8.30;59.20;;;;;;4999979;28;20093;-79
2022/03/01 08:02:18;;;;;;;17.58;12.27;;;8.20;59.40;;;;;;4996112;28;20042;-79
2022/03/01 08:04:43;;;;;;;26.08;12.35;;;8.20;59.70;;;;;;4995971;28;20030;-79
2022/03/01 08:07:09;;;;;;;27.45;15.88;;;8.20;59.90;;;;;;4996045;28;20022;-79
2022/03/01 08:09:39;;;;;;;24.10;14.35;;;8.10;59.80;;;;;;4996013;28;20038;-76
2022/03/01 08:12:08;;;;;;;33.85;21.58;;;8.10;60.20;;;;;;4996050;28;20038;-76
2022/03/01 08:14:35;;;;;;;24.35;14.10;;;8.00;60.50;;;;;;4995745;28;20039;-79
2022/03/01 08:17:02;;;;;;;21.00;13.25;;;7.90;60.40;;;;;;4996099;28;20026;-77
2022/03/01 08:19:28;;;;;;;25.33;16.40;;;7.80;60.50;;;;;;4995906;28;20046;-79
2022/03/01 08:21:53;;;;;;;51.75;21.15;;;7.80;60.60;;;;;;4995319;28;20027;-77
2022/03/01 08:24:19;;;;;;;26.77;14.63;;;7.90;60.80;;;;;;4995958;28;20022;-77
2022/03/01 08:26:45;;;;;;;16.15;11.07;;;7.90;60.70;;;;;;4996018;28;20022;-79
2022/03/01 08:29:12;;;;;;;18.73;12.35;;;7.90;60.60;;;;;;4995795;28;20038;-78
2022/03/01 08:31:41;;;;;;;18.98;11.63;;;7.80;60.90;;;;;;4995481;28;20030;-79
2022/03/01 08:34:06;;;;;;;28.17;12.98;;;7.90;61.00;;;;;;4995280;28;20084;-80
2022/03/01 08:36:32;;;;;;;27.08;12.45;;;7.80;61.30;;;;;;4995430;28;20026;-80
2022/03/01 08:38:58;;;;;;;15.63;10.85;;;7.80;61.40;;;;;;4995477;28;20030;-80
2022/03/01 08:41:24;;;;;;;19.80;11.55;;;7.90;61.30;;;;;;4995656;28;20022;-80
2022/03/01 08:43:49;;;;;;;18.05;11.15;;;7.90;61.20;;;;;;4995058;28;20478;-81
2022/03/01 08:46:15;;;;;;;16.65;11.50;;;8.00;61.10;;;;;;4995678;28;20038;-80
2022/03/01 08:48:41;;;;;;;17.95;11.18;;;8.00;61.40;;;;;;4995719;28;20026;-81
2022/03/01 08:51:06;;;;;;;17.33;10.90;;;8.00;61.10;;;;;;5013775;28;20050;-81
2022/03/01 08:53:33;;;;;;;16.05;10.60;;;8.10;61.00;;;;;;5015088;28;20068;-80
2022/03/01 08:55:59;;;;;;;18.70;11.48;;;8.10;61.10;;;;;;5014795;28;20481;-81
2022/03/01 08:58:25;;;;;;;18.15;11.02;;;8.10;61.00;;;;;;5014387;28;20109;-81
2022/03/01 09:00:52;;;;;;;20.55;11.60;;;8.20;61.00;;;;;;5014772;28;20034;-80
2022/03/01 09:03:18;;;;;;;16.33;11.05;;;8.20;61.00;;;;;;5014700;28;20030;-81
2022/03/01 09:05:44;;;;;;;17.30;11.18;;;8.20;61.20;;;;;;5014143;28;20041;-80
2022/03/01 09:08:12;;;;;;;15.25;11.00;;;8.20;61.10;;;;;;5014820;28;20024;-80
2022/03/01 09:10:39;;;;;;;17.80;11.45;;;8.20;61.10;;;;;;5014569;28;20104;-80
2022/03/01 09:13:05;;;;;;;18.85;11.38;;;8.20;60.90;;;;;;5014809;28;20022;-80
2022/03/01 09:15:32;;;;;;;20.27;11.48;;;8.20;60.90;;;;;;5014436;28;20026;-80
2022/03/01 09:17:59;;;;;;;16.77;11.05;;;8.20;60.60;;;;;;5014386;28;20033;-80
2022/03/01 09:20:26;;;;;;;16.52;10.82;;;8.30;60.60;;;;;;5014085;28;20587;-80
2022/03/01 09:22:53;;;;;;;18.15;10.80;;;8.30;60.60;;;;;;5014286;28;20025;-81
2022/03/01 09:25:21;;;;;;;26.50;11.07;;;8.30;60.80;;;;;;5014343;28;20025;-80
2022/03/01 09:27:47;;;;;;;17.35;10.65;;;8.20;61.40;;;;;;5014186;28;20022;-81
2022/03/01 09:30:14;;;;;;;19.00;10.88;;;8.30;62.10;;;;;;5014158;28;20196;-81
2022/03/01 09:32:40;;;;;;;15.98;10.25;;;8.30;61.60;;;;;;5014365;28;20026;-81
2022/03/01 09:35:07;;;;;;;19.60;11.02;;;8.40;61.50;;;;;;5014026;28;20026;-81
2022/03/01 09:37:32;;;;;;;125.25;21.25;;;8.40;61.30;;;;;;5013849;28;20029;-80
2022/03/01 09:39:59;;;;;;;28.42;11.80;;;8.50;61.40;;;;;;5013855;28;20044;-81
2022/03/01 09:42:26;;;;;;;17.88;10.32;;;8.50;61.10;;;;;;5014122;28;20393;-81
2022/03/01 09:44:54;;;;;;;19.48;10.57;;;8.60;61.20;;;;;;5013624;28;20065;-81
2022/03/01 09:47:19;;;;;;;68.07;16.05;;;8.60;61.10;;;;;;5013763;28;20025;-82
2022/03/01 09:49:45;;;;;;;20.65;11.27;;;8.70;61.20;;;;;;5013944;28;20045;-81
2022/03/01 09:52:23;;;;;;;21.05;10.65;;;8.70;60.70;;;;;;5014041;28;20072;-81
2022/03/01 09:54:50;;;;;;;19.20;10.75;;;8.80;61.40;;;;;;5013903;28;20021;-81
2022/03/01 09:57:16;;;;;;;18.90;11.10;;;8.90;60.60;;;;;;5013620;28;20022;-81
2022/03/01 09:59:42;;;;;;;18.45;10.00;;;8.90;60.50;;;;;;5013543;28;20034;-80
2022/03/01 10:02:08;;;;;;;16.10;9.90;;;8.90;61.00;;;;;;5013804;28;20041;-76
2022/03/01 10:04:48;;;;;;;14.15;10.30;;;8.90;61.00;;;;;;5013617;28;20045;-79
2022/03/01 10:07:24;;;;;;;18.85;10.57;;;9.00;60.90;;;;;;4996107;28;20034;-80
2022/03/01 10:09:50;;;;;;;16.83;10.40;;;9.10;60.50;;;;;;5013808;28;20026;-81
2022/03/01 10:12:26;;;;;;;16.10;10.60;;;9.20;60.40;;;;;;5013442;28;20385;-81
2022/03/01 10:14:58;;;;;;;14.60;10.23;;;9.30;60.30;;;;;;5013850;28;20033;-82
2022/03/01 10:17:24;;;;;;;17.98;10.75;;;9.40;60.00;;;;;;5013646;28;20380;-82
2022/03/01 10:20:01;;;;;;;16.33;11.10;;;9.50;59.80;;;;;;5013362;28;20033;-81
2022/03/01 10:22:26;;;;;;;16.83;10.30;;;9.70;59.80;;;;;;5013581;28;20466;-82
2022/03/01 10:24:52;;;;;;;15.25;10.02;;;9.80;60.30;;;;;;5013203;28;20030;-82
2022/03/01 10:27:27;;;;;;;14.95;10.02;;;9.90;60.10;;;;;;5013357;28;20033;-81
2022/03/01 10:29:53;;;;;;;14.98;10.23;;;10.00;59.20;;;;;;5013263;28;20029;-81
2022/03/01 10:32:22;;;;;;;17.48;9.95;;;10.10;58.50;;;;;;5013586;28;20018;-81
2022/03/01 10:34:59;;;;;;;32.40;11.23;;;10.20;58.70;;;;;;5013576;28;20097;-81
2022/03/01 10:37:30;;;;;;;15.07;10.45;;;10.30;58.70;;;;;;5013320;28;20044;-81
2022/03/01 10:40:14;;;;;;;13.90;9.48;;;10.30;59.20;;;;;;5013616;28;20048;-81
2022/03/01 10:42:41;;;;;;;11.48;8.88;;;10.40;59.30;;;;;;5012622;28;20018;-82
2022/03/01 10:45:09;;;;;;;28.75;10.32;;;10.40;58.70;;;;;;5013384;28;20432;-82
2022/03/01 10:47:35;;;;;;;17.27;10.55;;;10.50;58.50;;;;;;5013508;28;20054;-81
2022/03/01 10:50:07;;;;;;;14.18;9.60;;;10.50;58.30;;;;;;5012970;28;20042;-81
2022/03/01 10:52:34;;;;;;;18.42;10.18;;;10.50;58.10;;;;;;5013458;28;20112;-81
2022/03/01 10:55:00;;;;;;;18.67;10.88;;;10.60;58.10;;;;;;5013156;28;20038;-81
2022/03/01 10:57:26;;;;;;;16.52;10.35;;;10.70;57.50;;;;;;5013125;28;20018;-81
2022/03/01 10:59:52;;;;;;;12.45;8.93;;;10.70;56.40;;;;;;5013389;28;20041;-82
2022/03/01 11:02:19;;;;;;;18.40;9.52;;;10.80;56.20;;;;;;5012861;28;20525;-82
2022/03/01 11:04:46;;;;;;;18.85;9.93;;;10.80;56.40;;;;;;5013170;28;20481;-82
2022/03/01 11:07:13;;;;;;;22.95;10.23;;;10.90;56.80;;;;;;5013123;28;20017;-81
2022/03/01 11:09:39;;;;;;;21.05;11.15;;;11.00;56.90;;;;;;5013303;28;20030;-81
2022/03/01 11:12:07;;;;;;;14.98;10.32;;;11.00;56.30;;;;;;4995173;28;20022;-80
2022/03/01 11:14:52;;;;;;;14.20;10.10;;;11.00;56.00;;;;;;5012960;28;20100;-81
2022/03/01 11:17:22;;;;;;;14.80;9.23;;;11.10;56.10;;;;;;5013151;28;20022;-80
2022/03/01 11:20:02;;;;;;;32.63;10.40;;;11.10;55.90;;;;;;5013172;28;20161;-80
2022/03/01 11:22:49;;;;;;;18.23;10.18;;;11.10;56.20;;;;;;5013161;28;20022;-80
2022/03/01 11:25:21;;;;;;;20.95;9.77;;;11.20;55.80;;;;;;5012681;28;20049;-82
2022/03/01 11:27:58;;;;;;;23.35;11.05;;;11.20;55.70;;;;;;5013026;28;20056;-82
2022/03/01 11:30:31;;;;;;;36.80;10.20;;;11.30;54.90;;;;;;5013083;28;20037;-82
2022/03/01 11:32:57;;;;;;;;;;;11.20;56.20;;;;;;5017006;28;20022;-81
2022/03/01 11:35:26;;;;;;;16.70;10.00;;;11.20;55.90;;;;;;5016180;28;19951;-81
2022/03/01 11:38:18;;;;;;;13.63;10.10;;;11.20;55.30;;;;;;5016313;28;20018;-81
2022/03/01 11:40:47;;;;;;;15.13;10.50;;;11.30;55.00;;;;;;5016412;28;20040;-81
2022/03/01 11:43:22;;;;;;;20.20;11.05;;;11.30;55.00;;;;;;5016158;28;20280;-81
2022/03/01 11:45:53;;;;;;;14.15;10.18;;;11.30;55.70;;;;;;5016251;28;20018;-82
2022/03/01 11:48:24;;;;;;;16.27;10.45;;;11.30;55.90;;;;;;5016547;28;20377;-82
2022/03/01 11:50:55;;;;;;;24.70;11.15;;;11.20;55.70;;;;;;5016170;28;20073;-81
2022/03/01 11:53:23;;;;;;;17.45;10.38;;;11.20;55.10;;;;;;5016106;28;20026;-81
2022/03/01 11:55:56;;;;;;;16.05;10.63;;;11.20;54.80;;;;;;5015877;28;20101;-82
2022/03/01 11:58:23;;;;;;;18.80;10.32;;;11.20;55.00;;;;;;5016054;28;20429;-81
2022/03/01 12:00:50;;;;;;;35.75;12.75;;;11.30;55.50;;;;;;5016048;28;20083;-82
2022/03/01 12:03:18;;;;;;;21.65;10.27;;;11.30;55.30;;;;;;5016043;28;20030;-81
2022/03/01 12:05:48;;;;;;;17.33;10.95;;;11.40;55.30;;;;;;5015787;28;20034;-82
2022/03/01 12:08:15;;;;;;;13.70;10.38;;;11.40;55.30;;;;;;5015473;28;20030;-80
2022/03/01 12:11:06;;;;;;;15.65;10.07;;;11.40;55.10;;;;;;5016097;28;20057;-82
2022/03/01 12:13:46;;;;;;;15.05;9.65;;;11.30;54.70;;;;;;5015885;28;20026;-82
2022/03/01 12:16:26;;;;;;;15.02;10.77;;;11.30;54.90;;;;;;5015716;28;20022;-82
2022/03/01 12:19:03;;;;;;;40.38;11.18;;;11.40;55.50;;;;;;5015605;28;20381;-82
2022/03/01 12:21:28;;;;;;;16.63;11.45;;;11.50;55.50;;;;;;5015534;28;20072;-82
2022/03/01 12:23:54;;;;;;;18.25;10.77;;;11.50;55.70;;;;;;5015576;28;20049;-83
2022/03/01 12:26:19;;;;;;;19.08;10.48;;;11.50;56.70;;;;;;5015643;28;20048;-83
2022/03/01 12:28:49;;;;;;;17.20;10.95;;;11.60;56.20;;;;;;5015295;28;20072;-84
2022/03/01 12:31:20;;;;;;;16.63;10.95;;;11.60;56.20;;;;;;5015153;28;20029;-83
2022/03/01 12:33:51;;;;;;;23.42;11.15;;;11.60;55.60;;;;;;5015334;28;20026;-83
2022/03/01 12:36:38;;;;;;;18.73;10.88;;;11.60;55.80;;;;;;5015388;28;20033;-83
2022/03/01 12:39:04;;;;;;;27.52;9.52;;;11.60;56.40;;;;;;5014982;28;20405;-81